Terminal Aerodrome Forecast
Issued by NWS Indianapolis, IN

Current Version | Previous Version | Text Only | Print | Product List | Glossary On
Versions: 1 2 3 4 5 6 7 8 9 10 11 12 13 14 15 16 17 18 19 20 21 22 23 24 25 26 27 28 29
000
FTUS43 KIND 160800 AAA
TAFIND
TAF AMD
KIND 160826Z 1608/1712 13005KT P6SM SCT250
     FM161400 16015G23KT P6SM BKN150
     FM170000 15011KT P6SM BKN250=

USA.gov is the U.S. government's official web portal to all federal, state and local government web resources and services.